METAR AND TAF INFORMATION
METAR FOR HECA
ADDS - METARS form results

(1933 UTC 26 April 2018)
Data provider http://aviationweather.gov/adds/metars/
 
METAR text: HECA 261900Z 29011KT CAVOK 23/14 Q1011 NOSIG
Conditions at: HECA (CAIRO INTL AIRPO, EG) observed 1900 UTC 26 April 2018
Temperature: 23.0°C (73°F)
Dewpoint: 14.0°C (57°F) [RH = 57%]
Pressure (altimeter): 29.85 inches Hg (1011.0 mb)
Winds: from the WNW (290 degrees) at 13 MPH (11 knots; 5.7 m/s)
Visibility: 6 or more miles (10+ km)
Ceiling: ceiling and visibility are OK
Clouds: unknown
Weather: no significant weather observed at this time

Forecast for: HECA (CAIRO INTL AIRPO, EG)
Text: TAF HECA 261700Z 2618/2724 28010KT CAVOK
Forecast period: 1800 UTC 26 April 2018 to 0000 UTC 28 April 2018
Forecast type: FROM: standard forecast or significant change
Winds: from the W (280 degrees) at 12 MPH (10 knots; 5.2 m/s)
Visibility: 6 or more miles (10+ km)
Clouds: not forecast
Weather: NSW  (no significant weather)
Forecast for: HECA (CAIRO INTL AIRPO, EG)
Text: TAF HECA 261700Z 2618/2724 28010KT CAVOK
Forecast period: 1800 UTC 26 April 2018 to 0000 UTC 28 April 2018
Forecast type: FROM: standard forecast or significant change
Winds: from the W (280 degrees) at 12 MPH (10 knots; 5.2 m/s)
Visibility: 6 or more miles (10+ km)
Clouds: not forecast
Weather: NSW  (no significant weather)
Forecast for: HECA (CAIRO INTL AIRPO, EG)
Text: TAF HECA 261700Z 2618/2724 28010KT CAVOK
Forecast period: 0000 to 0600 UTC 27 April 2018
Forecast type: TEMPORARY: The following changes expected for less than half the time period
Winds: variable direction winds at 3 MPH (3 knots; 1.6 m/s)
Weather: no significant weather forecast for this period
Forecast for: HECA (CAIRO INTL AIRPO, EG)
Text: TAF HECA 261700Z 2618/2724 28010KT CAVOK
Forecast period: 0000 to 0600 UTC 27 April 2018
Forecast type: TEMPORARY: The following changes expected for less than half the time period
Winds: variable direction winds at 3 MPH (3 knots; 1.6 m/s)
Weather: no significant weather forecast for this period
Forecast for: HECA (CAIRO INTL AIRPO, EG)
Text: TAF HECA 261700Z 2618/2724 28010KT CAVOK
Forecast period: 0300 to 0600 UTC 27 April 2018
Forecast type: TEMPORARY: The following changes expected for less than half the time period
Visibility: 2.49 miles (4.01 km)
Weather: HZ  (haze)
Forecast for: HECA (CAIRO INTL AIRPO, EG)
Text: TAF HECA 261700Z 2618/2724 28010KT CAVOK
Forecast period: 0300 to 0600 UTC 27 April 2018
Forecast type: TEMPORARY: The following changes expected for less than half the time period
Visibility: 2.49 miles (4.01 km)
Weather: HZ  (haze)

 AIRPORT MAP

 RUNWAY INFORMATION
Runway 05C Runway length 13120 ft Runway width 197 ft
Runway elevation 382 ft Runway displaced threshold 0 ft Runway heading 45
Runway 23C Runway length 13120 ft Runway width 197 ft
Runway elevation 0 ft Runway displaced threshold 0 ft Runway heading 225
Runway 05L Runway length 10830 ft Runway width 197 ft
Runway elevation 190 ft Runway displaced threshold 0 ft Runway heading 49
Runway 23R Runway length 10830 ft Runway width 197 ft
Runway elevation 199 ft Runway displaced threshold 0 ft Runway heading 229
Runway 05R Runway length 13124 ft Runway width 197 ft
Runway elevation 382 ft Runway displaced threshold 0 ft Runway heading 49
Runway 23L Runway length 13124 ft Runway width 197 ft
Runway elevation 375 ft Runway displaced threshold 0 ft Runway heading 229

 AIRPORT FREQUENCIES
Type APP Name APP Frequency 119.05 MHZ
Type ATIS Name ATIS Frequency 122.6 MHZ
Type GND Name GND Frequency 121.9 MHZ
Type MISC Name VOLMET Frequency 126.2 MHZ
Type PFLT Name PREFLIGHT Frequency 120.1 MHZ
Type rdo Name cairo radi Frequency 11.3 MHZ
Type TWR Name TWR Frequency 118.1 MHZ
Type Volmet Name Frequency 124.6 MHZ

 AIRPORT NEAR NAVIGATION AIDS
Type NDB Name Cairo Frequency 310 KHZ
Type VOR-DME Name Cairo Frequency 112500 KHZ
Type VOR-DME Name Cairo Frequency 115200 KHZ
Type NDB Name Cairo Frequency 317 KHZ



v2.6.1